Time;durP1;ratioP1;P1;durP2;ratioP2;P2;SDS_P1;SDS_P2;PMS_P1;PMS_P2;Temp;Humidity;BMP_temperature;BMP_pressure;BME280_temperature;BME280_humidity;BME280_pressure;Samples;Min_cycle;Max_cycle;Signal;HPM_P1;HPM_P2
2023/01/14 00:01:24;;;;;;;8.15;0.80;;;8.00;99.90;;;;;;4972683;28;20034;-76
2023/01/14 00:03:51;;;;;;;3.00;1.17;;;8.00;99.90;;;;;;4990778;28;20050;-76
2023/01/14 00:06:21;;;;;;;4.53;0.70;;;7.90;99.90;;;;;;4988635;28;20069;-76
2023/01/14 00:08:52;;;;;;;13.25;1.20;;;8.00;99.90;;;;;;4990851;28;20034;-76
2023/01/14 00:11:17;;;;;;;7.78;1.08;;;8.00;99.90;;;;;;4989851;28;20042;-76
2023/01/14 00:13:43;;;;;;;14.70;1.27;;;7.90;99.90;;;;;;4994695;28;20382;-76
2023/01/14 00:16:13;;;;;;;6.22;1.17;;;7.90;99.90;;;;;;4993468;28;20030;-76
2023/01/14 00:18:39;;;;;;;17.35;0.98;;;8.00;99.90;;;;;;4994391;28;20033;-76
2023/01/14 00:21:09;;;;;;;13.02;1.08;;;8.00;99.90;;;;;;4993782;28;20031;-76
2023/01/14 00:23:36;;;;;;;8.57;1.55;;;7.90;99.90;;;;;;4994431;28;20023;-76
2023/01/14 00:26:12;;;;;;;20.35;0.60;;;7.90;99.90;;;;;;4992361;28;20498;-76
2023/01/14 00:28:38;;;;;;;19.23;1.35;;;7.90;99.90;;;;;;4994304;28;20035;-77
2023/01/14 00:31:11;;;;;;;4.32;0.68;;;7.90;99.90;;;;;;4993452;28;20053;-76
2023/01/14 00:33:38;;;;;;;0.43;0.30;;;7.80;99.90;;;;;;4994297;28;20045;-76
2023/01/14 00:36:11;;;;;;;9.13;1.50;;;7.90;99.90;;;;;;4993280;28;20026;-76
2023/01/14 00:38:37;;;;;;;8.88;1.98;;;7.90;99.90;;;;;;4992984;28;20062;-75
2023/01/14 00:41:15;;;;;;;7.75;1.30;;;7.80;99.90;;;;;;4993192;28;20038;-75
2023/01/14 00:43:45;;;;;;;2.92;0.68;;;7.80;99.90;;;;;;4994059;28;20034;-75
2023/01/14 00:46:17;;;;;;;4.15;1.40;;;7.80;99.90;;;;;;4991708;28;20049;-75
2023/01/14 00:48:44;;;;;;;7.88;1.58;;;7.70;99.90;;;;;;4992643;28;20101;-75
2023/01/14 00:51:11;;;;;;;3.10;0.60;;;7.60;99.90;;;;;;4991689;28;20034;-75
2023/01/14 00:53:39;;;;;;;2.33;0.60;;;7.60;99.90;;;;;;4992361;28;20032;-75
2023/01/14 00:56:06;;;;;;;6.18;1.05;;;7.50;99.90;;;;;;4993239;28;20033;-75
2023/01/14 00:58:32;;;;;;;2.78;0.80;;;7.60;99.90;;;;;;4992466;28;20055;-74
2023/01/14 01:00:58;;;;;;;3.10;0.57;;;7.50;99.90;;;;;;4992804;28;20514;-74
2023/01/14 01:03:25;;;;;;;10.10;1.52;;;7.50;99.90;;;;;;4993381;28;20109;-74
2023/01/14 01:05:52;;;;;;;3.30;1.40;;;7.50;99.90;;;;;;4991863;28;20038;-76
2023/01/14 01:08:21;;;;;;;3.33;1.02;;;7.50;99.90;;;;;;4976088;28;20030;-76
2023/01/14 01:10:53;;;;;;;9.45;1.65;;;7.40;99.90;;;;;;4992866;28;20041;-76
2023/01/14 01:13:22;;;;;;;2.85;1.15;;;7.40;99.90;;;;;;4984877;28;20034;-75
2023/01/14 01:15:49;;;;;;;1.30;0.70;;;7.40;99.90;;;;;;4991424;28;20030;-76
2023/01/14 01:18:15;;;;;;;1.50;0.55;;;7.30;99.90;;;;;;4991924;28;20572;-75
2023/01/14 01:20:42;;;;;;;0.38;0.30;;;7.20;99.90;;;;;;4975360;28;20061;-76
2023/01/14 01:23:10;;;;;;;1.00;0.40;;;7.20;99.90;;;;;;4992197;28;20027;-75
2023/01/14 01:25:36;;;;;;;5.85;1.25;;;7.30;99.90;;;;;;4991223;28;20030;-76
2023/01/14 01:28:02;;;;;;;8.57;1.30;;;7.20;99.90;;;;;;4991674;28;20034;-76
2023/01/14 01:30:29;;;;;;;6.40;1.42;;;7.20;99.90;;;;;;4991141;28;20500;-75
2023/01/14 01:32:55;;;;;;;5.78;1.13;;;7.10;99.90;;;;;;4993192;28;20036;-75
2023/01/14 01:35:22;;;;;;;10.90;1.55;;;7.10;99.90;;;;;;5018915;23;20057;-77
2023/01/14 01:37:49;;;;;;;1.60;0.52;;;7.10;99.90;;;;;;5002514;28;20022;-77
2023/01/14 01:40:15;;;;;;;5.47;1.77;;;7.10;99.90;;;;;;5002247;28;20030;-77
2023/01/14 01:42:54;;;;;;;8.25;1.60;;;7.10;99.90;;;;;;5012390;28;20048;-77
2023/01/14 01:45:45;;;;;;;5.03;0.77;;;7.20;99.90;;;;;;4987479;28;20066;-77
2023/01/14 01:48:28;;;;;;;16.83;2.00;;;7.10;99.90;;;;;;4992615;28;20041;-76
2023/01/14 01:51:20;;;;;;;5.90;1.30;;;7.10;99.90;;;;;;4992175;28;20996;-77
2023/01/14 01:53:50;;;;;;;3.70;1.10;;;7.10;99.90;;;;;;4991504;28;20042;-77
2023/01/14 01:56:21;;;;;;;6.18;0.90;;;7.10;99.90;;;;;;4951313;28;20049;-77
2023/01/14 01:58:48;;;;;;;2.67;0.57;;;7.00;99.90;;;;;;4990701;28;20034;-77
2023/01/14 02:01:15;;;;;;;14.40;1.02;;;7.10;99.90;;;;;;4975229;28;20030;-77
2023/01/14 02:03:47;;;;;;;15.02;0.90;;;7.10;99.90;;;;;;4990542;28;20034;-77
2023/01/14 02:06:14;;;;;;;0.82;0.38;;;7.00;99.90;;;;;;4986911;28;20582;-76
2023/01/14 02:08:47;;;;;;;2.33;0.68;;;7.00;99.90;;;;;;4993567;28;20564;-77
2023/01/14 02:11:50;;;;;;;7.70;1.90;;;7.10;99.90;;;;;;4975483;28;20121;-77
2023/01/14 02:15:16;;;;;;;2.13;0.77;;;7.00;99.90;;;;;;4991787;28;20034;-76
2023/01/14 02:17:57;;;;;;;10.38;1.15;;;7.00;99.90;;;;;;4972693;28;20045;-77
2023/01/14 02:20:33;;;;;;;6.45;1.27;;;6.90;99.90;;;;;;4987889;28;20038;-77
2023/01/14 02:23:44;;;;;;;7.35;1.63;;;6.90;99.90;;;;;;4992097;28;20113;-77
2023/01/14 02:26:19;;;;;;;1.27;0.73;;;6.80;99.90;;;;;;4991227;28;20061;-77
2023/01/14 02:29:30;;;;;;;10.15;1.50;;;6.70;99.90;;;;;;4991015;28;20037;-77
2023/01/14 02:32:31;;;;;;;13.48;0.95;;;6.70;99.90;;;;;;4989107;28;20163;-76
2023/01/14 02:35:27;;;;;;;3.15;0.90;;;6.80;99.90;;;;;;4989838;28;20549;-77
2023/01/14 02:38:00;;;;;;;16.60;1.55;;;6.80;99.90;;;;;;4985995;28;20499;-77
2023/01/14 02:40:38;;;;;;;2.13;0.63;;;6.80;99.90;;;;;;4989932;28;20046;-75
2023/01/14 02:46:30;;;;;;;1.98;0.80;;;6.80;99.90;;;;;;4990642;28;20042;-77
2023/01/14 02:48:59;;;;;;;4.82;1.92;;;6.70;99.90;;;;;;4989636;28;20109;-77
2023/01/14 02:51:26;;;;;;;2.15;0.43;;;6.70;99.90;;;;;;4991680;28;20038;-77
2023/01/14 02:53:51;;;;;;;10.85;1.55;;;6.70;99.90;;;;;;4989298;28;20454;-77
2023/01/14 02:56:18;;;;;;;1.20;0.55;;;6.70;99.90;;;;;;4991666;28;20041;-78
2023/01/14 02:59:13;;;;;;;10.93;0.60;;;6.70;99.90;;;;;;4989675;28;20053;-77
2023/01/14 03:01:52;;;;;;;5.50;1.48;;;6.70;99.90;;;;;;4976831;28;20045;-76
2023/01/14 03:05:14;;;;;;;5.72;0.90;;;6.70;99.90;;;;;;4990238;28;20049;-76
2023/01/14 03:07:47;;;;;;;1.75;1.27;;;6.60;99.90;;;;;;4986374;28;20092;-77
2023/01/14 03:10:26;;;;;;;11.98;1.70;;;6.60;99.90;;;;;;4990461;28;20048;-77
2023/01/14 03:13:13;;;;;;;2.92;0.82;;;6.60;99.90;;;;;;4989973;28;20487;-77
2023/01/14 03:15:54;;;;;;;9.07;1.02;;;6.70;99.90;;;;;;4990385;28;20085;-77
2023/01/14 03:18:44;;;;;;;5.35;0.85;;;6.70;99.90;;;;;;4971591;28;20086;-77
2023/01/14 03:21:22;;;;;;;4.65;2.17;;;6.70;99.90;;;;;;4969906;28;20038;-76
2023/01/14 03:24:09;;;;;;;5.82;0.65;;;6.70;99.90;;;;;;4972621;28;20039;-76
2023/01/14 03:26:38;;;;;;;4.70;1.27;;;6.70;99.90;;;;;;4980549;28;20027;-77
2023/01/14 03:29:12;;;;;;;6.20;1.02;;;6.70;99.90;;;;;;4972824;28;20062;-77
2023/01/14 03:31:46;;;;;;;9.45;1.13;;;6.70;99.90;;;;;;4989962;28;20034;-77
2023/01/14 03:34:24;;;;;;;4.00;1.55;;;6.80;99.90;;;;;;4990034;28;20038;-77
2023/01/14 03:36:53;;;;;;;18.10;1.20;;;6.80;99.90;;;;;;4989458;28;20054;-77
2023/01/14 03:39:23;;;;;;;1.63;0.75;;;6.70;99.90;;;;;;4988947;28;20031;-77
2023/01/14 03:44:57;;;;;;;4.18;0.80;;;6.70;99.90;;;;;;4989202;28;20088;-77
2023/01/14 03:47:27;;;;;;;1.10;0.47;;;6.70;99.90;;;;;;4986508;28;20054;-78
2023/01/14 03:49:54;;;;;;;5.90;0.73;;;6.70;99.90;;;;;;4993706;28;20062;-77
2023/01/14 03:53:06;;;;;;;1.10;0.68;;;6.60;99.90;;;;;;4994192;28;20038;-77
2023/01/14 03:56:00;;;;;;;2.92;1.10;;;6.60;99.90;;;;;;4994691;28;20038;-77
2023/01/14 03:59:06;;;;;;;5.50;1.27;;;6.60;99.90;;;;;;4975509;28;20094;-77
2023/01/14 04:01:53;;;;;;;5.28;0.57;;;6.60;99.90;;;;;;4973713;28;20049;-77
2023/01/14 04:04:21;;;;;;;11.05;1.10;;;6.60;99.90;;;;;;4970408;28;20038;-76
2023/01/14 04:06:47;;;;;;;11.75;1.25;;;6.50;99.90;;;;;;4991356;28;20395;-77
2023/01/14 04:09:13;;;;;;;5.05;1.38;;;6.40;99.90;;;;;;4962634;28;20033;-77
2023/01/14 04:11:39;;;;;;;10.13;1.55;;;6.40;99.90;;;;;;4990501;28;20030;-77
2023/01/14 04:16:50;;;;;;;4.47;1.05;;;6.30;99.90;;;;;;4990935;28;20027;-77
2023/01/14 04:19:16;;;;;;;17.83;1.45;;;6.40;99.90;;;;;;4994033;28;20659;-76
2023/01/14 04:21:41;;;;;;;2.35;1.05;;;6.30;99.90;;;;;;4994359;28;20034;-77
2023/01/14 04:24:08;;;;;;;5.07;0.85;;;6.30;99.90;;;;;;4993427;28;20041;-77
2023/01/14 04:26:33;;;;;;;7.03;0.40;;;6.40;99.90;;;;;;4960205;28;20030;-76
2023/01/14 04:28:59;;;;;;;1.90;0.73;;;6.40;99.90;;;;;;4993017;28;20564;-77
2023/01/14 04:31:25;;;;;;;8.88;0.95;;;6.40;99.90;;;;;;4994280;28;20034;-76
2023/01/14 04:33:51;;;;;;;1.50;0.65;;;6.40;99.90;;;;;;4992705;28;20175;-77
2023/01/14 04:36:17;;;;;;;5.15;2.17;;;6.40;99.90;;;;;;4993605;28;20034;-78
2023/01/14 04:38:43;;;;;;;6.05;1.50;;;6.40;99.90;;;;;;4976072;28;20058;-78
2023/01/14 04:42:26;;;;;;;3.00;1.45;;;6.40;99.90;;;;;;4975604;28;20442;-78
2023/01/14 04:43:59;;;;;;;12.38;1.02;;;6.40;99.90;;;;;;4991560;28;20501;-78
2023/01/14 04:46:25;;;;;;;0.75;0.52;;;6.50;99.90;;;;;;4993569;28;20129;-77
2023/01/14 04:48:51;;;;;;;3.83;1.00;;;6.60;99.90;;;;;;4984204;28;20088;-78
2023/01/14 04:51:16;;;;;;;11.05;1.40;;;6.60;99.90;;;;;;4983531;28;20030;-78
2023/01/14 04:53:42;;;;;;;7.85;0.73;;;6.50;99.90;;;;;;4989730;28;20031;-77
2023/01/14 04:56:08;;;;;;;1.95;0.68;;;6.60;99.90;;;;;;4991090;28;20513;-77
2023/01/14 04:58:33;;;;;;;4.30;0.75;;;6.60;99.90;;;;;;4980144;28;20038;-78
2023/01/14 05:01:00;;;;;;;9.30;1.85;;;6.70;99.90;;;;;;4991414;28;20038;-77
2023/01/14 05:03:26;;;;;;;7.13;1.48;;;6.80;99.90;;;;;;4992661;28;20022;-77
2023/01/14 05:05:51;;;;;;;1.15;0.40;;;6.80;99.90;;;;;;4992575;28;20048;-78
2023/01/14 05:08:19;;;;;;;5.75;0.70;;;6.70;99.90;;;;;;4993342;28;20397;-77
2023/01/14 05:10:50;;;;;;;21.38;1.60;;;6.70;99.90;;;;;;4988036;28;20031;-77
2023/01/14 05:13:16;;;;;;;7.07;0.55;;;6.70;99.90;;;;;;4968544;28;20121;-77
2023/01/14 05:15:44;;;;;;;0.80;0.30;;;6.70;99.90;;;;;;4990994;28;20066;-76
2023/01/14 05:18:14;;;;;;;4.78;1.73;;;6.70;99.90;;;;;;4991716;28;20077;-78
2023/01/14 05:20:41;;;;;;;14.00;0.60;;;6.80;99.90;;;;;;4975091;28;20034;-76
2023/01/14 05:23:15;;;;;;;9.65;0.57;;;6.90;99.90;;;;;;4993076;28;20030;-77
2023/01/14 05:25:41;;;;;;;4.38;1.02;;;6.80;99.90;;;;;;4992627;28;20029;-76
2023/01/14 05:28:13;;;;;;;6.97;1.67;;;6.90;99.90;;;;;;4992667;28;20113;-75
2023/01/14 05:30:38;;;;;;;4.68;0.50;;;6.80;99.90;;;;;;4990786;28;20030;-77
2023/01/14 05:33:05;;;;;;;2.83;0.77;;;6.90;99.90;;;;;;4991606;28;20042;-76
2023/01/14 05:35:32;;;;;;;3.38;1.05;;;6.90;99.90;;;;;;4991508;28;20443;-76
2023/01/14 05:37:58;;;;;;;3.20;0.75;;;6.90;99.90;;;;;;4991305;28;20046;-76
2023/01/14 05:40:23;;;;;;;7.50;2.17;;;7.00;99.90;;;;;;4990774;28;20034;-77
2023/01/14 05:45:49;;;;;;;1.83;0.68;;;6.90;99.90;;;;;;4991497;28;20042;-76
2023/01/14 05:48:25;;;;;;;4.15;0.70;;;6.90;99.90;;;;;;4991312;28;20153;-77
2023/01/14 05:50:54;;;;;;;6.15;1.48;;;6.90;99.90;;;;;;4971683;28;20096;-77
2023/01/14 05:53:20;;;;;;;1.48;0.50;;;6.80;99.90;;;;;;4991299;28;20050;-77
2023/01/14 05:55:46;;;;;;;3.65;1.33;;;6.80;99.90;;;;;;4974817;28;20487;-77
2023/01/14 05:58:12;;;;;;;1.85;0.57;;;6.80;99.90;;;;;;4974758;28;20407;-76
2023/01/14 06:06:23;;;;;;;1.85;1.08;;;6.40;99.90;;;;;;4991187;28;20103;-76
2023/01/14 06:09:02;;;;;;;4.10;0.85;;;6.30;99.90;;;;;;4989513;28;20548;-77
2023/01/14 06:11:29;;;;;;;17.05;2.75;;;6.20;99.90;;;;;;4975246;28;20030;-77
2023/01/14 06:13:59;;;;;;;10.90;1.45;;;6.10;99.90;;;;;;4991018;28;20549;-77
2023/01/14 06:16:27;;;;;;;2.72;0.77;;;6.10;99.90;;;;;;4990054;28;20070;-78
2023/01/14 06:18:55;;;;;;;10.05;1.58;;;6.10;99.90;;;;;;4990483;28;20030;-78
2023/01/14 06:21:28;;;;;;;8.95;1.30;;;6.10;99.90;;;;;;4990342;28;20030;-78
2023/01/14 06:23:54;;;;;;;2.53;0.50;;;6.10;99.90;;;;;;4990411;28;20466;-78
2023/01/14 06:26:26;;;;;;;1.08;0.70;;;6.00;99.90;;;;;;4990520;28;20110;-76
2023/01/14 06:29:03;;;;;;;7.57;0.98;;;6.00;99.90;;;;;;4989284;28;20026;-76
2023/01/14 06:31:29;;;;;;;0.88;0.82;;;6.00;99.90;;;;;;4990324;28;20498;-77
2023/01/14 06:33:55;;;;;;;5.38;2.10;;;6.00;99.90;;;;;;4990905;28;20513;-76
2023/01/14 06:36:22;;;;;;;9.45;0.90;;;6.00;99.90;;;;;;4989144;28;20053;-76
2023/01/14 06:38:48;;;;;;;6.93;2.40;;;5.90;99.90;;;;;;4989896;28;20030;-76
2023/01/14 06:41:13;;;;;;;3.83;1.35;;;5.90;99.90;;;;;;4965590;28;20479;-77
2023/01/14 06:43:41;;;;;;;1.73;0.85;;;5.80;99.90;;;;;;4978288;28;20446;-76
2023/01/14 06:46:12;;;;;;;4.55;0.98;;;5.80;99.90;;;;;;4975268;28;20053;-76
2023/01/14 06:48:39;;;;;;;5.32;1.38;;;5.80;99.90;;;;;;4990549;28;20038;-77
2023/01/14 06:51:12;;;;;;;2.70;0.75;;;5.80;99.90;;;;;;4969563;28;20034;-77
2023/01/14 06:53:39;;;;;;;1.25;0.68;;;5.80;99.90;;;;;;4988084;28;20033;-76
2023/01/14 06:56:13;;;;;;;4.80;1.50;;;5.90;99.90;;;;;;4975046;28;20022;-77
2023/01/14 06:58:39;;;;;;;4.78;1.25;;;5.90;99.90;;;;;;4990765;28;20034;-77
2023/01/14 07:01:06;;;;;;;3.67;1.83;;;6.00;99.90;;;;;;4990427;28;20030;-78
2023/01/14 07:03:32;;;;;;;6.07;0.90;;;6.00;99.90;;;;;;4990358;28;20030;-77
2023/01/14 07:05:59;;;;;;;2.53;1.02;;;6.00;99.90;;;;;;4990423;28;20038;-76
2023/01/14 07:08:26;;;;;;;9.27;1.10;;;6.10;99.90;;;;;;4989169;28;20038;-77
2023/01/14 07:10:52;;;;;;;2.03;0.95;;;6.10;99.90;;;;;;4982229;28;20041;-77
2023/01/14 07:13:20;;;;;;;2.78;0.60;;;6.20;99.90;;;;;;4991597;28;20113;-77
2023/01/14 07:15:47;;;;;;;4.88;0.43;;;6.30;99.90;;;;;;4972539;28;20042;-77
2023/01/14 07:18:14;;;;;;;3.60;0.28;;;6.30;99.90;;;;;;4989676;28;20050;-77
2023/01/14 07:20:40;;;;;;;4.80;0.82;;;6.30;99.90;;;;;;4989633;28;20026;-76
2023/01/14 07:23:06;;;;;;;2.08;0.80;;;6.40;99.90;;;;;;4990236;28;20487;-76
2023/01/14 07:25:32;;;;;;;2.20;0.80;;;6.40;99.90;;;;;;4975494;28;20475;-77
2023/01/14 07:27:58;;;;;;;7.63;1.23;;;6.40;99.90;;;;;;4994695;28;20090;-77
2023/01/14 07:30:24;;;;;;;14.93;1.58;;;6.40;99.90;;;;;;4994230;28;20038;-76
2023/01/14 07:32:49;;;;;;;5.07;0.63;;;6.40;99.90;;;;;;4990977;28;20411;-78
2023/01/14 07:35:15;;;;;;;1.65;0.82;;;6.50;99.90;;;;;;4991322;23;20038;-76
2023/01/14 07:37:41;;;;;;;11.80;0.50;;;6.50;99.90;;;;;;5008768;28;20426;-76
2023/01/14 07:40:08;;;;;;;5.07;2.13;;;6.50;99.90;;;;;;5006080;28;20061;-76
2023/01/14 07:42:34;;;;;;;2.40;1.10;;;6.60;99.90;;;;;;5010598;28;20474;-75
2023/01/14 07:44:59;;;;;;;2.03;0.70;;;6.60;99.90;;;;;;4992438;28;20042;-75
2023/01/14 07:47:25;;;;;;;1.02;0.60;;;6.60;99.90;;;;;;5010079;28;20034;-76
2023/01/14 07:49:51;;;;;;;5.40;1.55;;;6.50;99.90;;;;;;5006033;28;20041;-75
2023/01/14 07:52:16;;;;;;;2.15;0.85;;;6.50;99.90;;;;;;5010587;28;20105;-76
2023/01/14 07:54:42;;;;;;;2.72;0.77;;;6.50;99.90;;;;;;5009433;28;20096;-76
2023/01/14 07:57:09;;;;;;;3.30;0.73;;;6.50;99.90;;;;;;5009837;28;20383;-76
2023/01/14 07:59:36;;;;;;;7.95;1.48;;;6.50;99.90;;;;;;5006923;28;20070;-75
2023/01/14 08:02:02;;;;;;;5.43;1.33;;;6.50;99.90;;;;;;4992812;28;20611;-76
2023/01/14 08:04:28;;;;;;;4.78;1.33;;;6.50;99.90;;;;;;5008066;28;20034;-76
2023/01/14 08:06:56;;;;;;;18.42;2.83;;;6.60;99.90;;;;;;4992810;28;20470;-75
2023/01/14 08:09:22;;;;;;;6.90;2.03;;;6.50;99.90;;;;;;4991871;28;20038;-75
2023/01/14 08:11:48;;;;;;;11.45;1.67;;;6.60;99.90;;;;;;4993031;28;20048;-75
2023/01/14 08:14:14;;;;;;;3.47;1.73;;;6.60;99.90;;;;;;5008922;28;20088;-77
2023/01/14 08:16:39;;;;;;;8.70;1.63;;;6.60;99.90;;;;;;4987621;28;20175;-75
2023/01/14 08:19:05;;;;;;;1.75;1.02;;;6.70;99.90;;;;;;4992788;28;20033;-76
2023/01/14 08:21:31;;;;;;;2.50;1.08;;;6.70;99.90;;;;;;5005770;28;20168;-75
2023/01/14 08:23:56;;;;;;;11.48;2.03;;;6.80;99.90;;;;;;5008774;28;20026;-75
2023/01/14 08:26:22;;;;;;;9.02;1.88;;;6.80;99.90;;;;;;5005299;28;20390;-74
2023/01/14 08:28:48;;;;;;;2.03;0.65;;;6.90;99.90;;;;;;5010181;28;20029;-75
2023/01/14 08:31:16;;;;;;;14.13;2.95;;;7.00;99.90;;;;;;5005825;28;20030;-75
2023/01/14 08:33:44;;;;;;;1.65;1.05;;;7.00;99.90;;;;;;5012829;28;20084;-76
2023/01/14 08:36:16;;;;;;;4.88;1.20;;;7.00;99.90;;;;;;5002606;28;20170;-75
2023/01/14 08:38:46;;;;;;;2.42;0.57;;;7.00;99.90;;;;;;5012168;28;20108;-76
2023/01/14 08:41:15;;;;;;;3.17;0.73;;;7.10;99.90;;;;;;5007654;28;20088;-75
2023/01/14 08:43:41;;;;;;;8.38;1.88;;;7.00;99.90;;;;;;5012300;28;20030;-75
2023/01/14 08:46:09;;;;;;;2.20;1.02;;;7.00;99.90;;;;;;5011167;28;20045;-75
2023/01/14 08:48:36;;;;;;;9.65;1.75;;;7.00;99.90;;;;;;5013376;28;20034;-74
2023/01/14 08:51:09;;;;;;;7.57;2.15;;;7.00;99.90;;;;;;5007703;28;20121;-75
2023/01/14 08:53:37;;;;;;;5.90;1.33;;;7.10;99.90;;;;;;4981730;28;20057;-75
2023/01/14 08:56:05;;;;;;;0.60;0.40;;;7.10;99.90;;;;;;5002307;28;20042;-76
2023/01/14 08:58:31;;;;;;;1.88;0.70;;;7.10;99.90;;;;;;5011732;28;20117;-76
2023/01/14 09:01:00;;;;;;;19.05;1.98;;;7.10;99.90;;;;;;5007402;28;20060;-76
2023/01/14 09:03:30;;;;;;;5.28;1.30;;;7.20;99.90;;;;;;5011772;28;20045;-75
2023/01/14 09:06:01;;;;;;;6.22;1.63;;;7.20;99.90;;;;;;5008475;28;20119;-75
2023/01/14 09:19:27;;;;;;;7.65;2.58;;;7.50;99.90;;;;;;5011441;28;20425;-76
2023/01/14 09:21:53;;;;;;;7.32;2.17;;;7.40;99.90;;;;;;5009856;28;20025;-76
2023/01/14 09:24:19;;;;;;;3.25;0.95;;;7.50;99.90;;;;;;5011920;28;20037;-76
2023/01/14 09:26:44;;;;;;;3.00;0.43;;;7.40;99.90;;;;;;5008666;28;20490;-75
2023/01/14 09:29:10;;;;;;;10.82;1.17;;;7.50;99.90;;;;;;4996328;28;20034;-76
2023/01/14 09:31:36;;;;;;;7.03;1.65;;;7.40;99.90;;;;;;4996716;28;20118;-76
2023/01/14 09:34:01;;;;;;;4.18;1.05;;;7.50;99.90;;;;;;5004655;28;20032;-77
2023/01/14 09:36:29;;;;;;;12.80;1.10;;;7.50;99.90;;;;;;4998613;28;20042;-76
2023/01/14 09:38:55;;;;;;;3.00;1.05;;;7.50;99.90;;;;;;4989421;28;20120;-75
2023/01/14 09:41:32;;;;;;;2.45;0.70;;;7.50;99.90;;;;;;5007101;28;20030;-76
2023/01/14 09:44:00;;;;;;;8.60;2.38;;;7.60;99.90;;;;;;5002176;28;20410;-76
2023/01/14 09:46:27;;;;;;;2.47;1.45;;;7.60;99.90;;;;;;5010787;28;20041;-75
2023/01/14 09:48:59;;;;;;;9.55;0.93;;;7.70;99.90;;;;;;5010912;28;20112;-75
2023/01/14 09:52:03;;;;;;;;;;;7.70;99.90;;;;;;5011621;28;20501;-75
2023/01/14 09:55:10;;;;;;;0.40;0.35;;;7.80;99.90;;;;;;4994243;28;19932;-76
2023/01/14 09:58:17;;;;;;;13.63;1.55;;;7.80;99.90;;;;;;5006507;28;20081;-75
2023/01/14 10:01:16;;;;;;;2.83;0.70;;;7.90;99.90;;;;;;5005004;28;20046;-75
2023/01/14 10:04:09;;;;;;;2.05;1.35;;;7.90;99.90;;;;;;4992904;28;20027;-76
2023/01/14 10:06:36;;;;;;;3.13;0.73;;;7.90;99.90;;;;;;4983570;28;20501;-77
2023/01/14 10:09:13;;;;;;;13.48;1.35;;;7.90;99.90;;;;;;5002432;28;20491;-75
2023/01/14 10:11:44;;;;;;;1.67;0.55;;;8.00;99.90;;;;;;5004726;28;20057;-75
2023/01/14 10:14:20;;;;;;;3.25;0.90;;;8.00;99.90;;;;;;5002483;28;20034;-74
2023/01/14 10:16:54;;;;;;;5.20;1.00;;;8.00;99.90;;;;;;5011779;28;20018;-75
2023/01/14 10:19:48;;;;;;;5.10;1.02;;;8.00;99.90;;;;;;4993887;28;20087;-76
2023/01/14 10:23:10;;;;;;;7.00;1.45;;;8.10;99.90;;;;;;5010790;28;20091;-76
2023/01/14 10:25:35;;;;;;;;;;;8.10;99.90;;;;;;4989051;28;20022;-74
2023/01/14 10:28:01;;;;;;;4.55;2.75;;;8.10;99.90;;;;;;5009388;28;20385;-75
2023/01/14 10:30:31;;;;;;;4.50;0.75;;;8.10;99.90;;;;;;4987522;28;20038;-76
2023/01/14 10:33:01;;;;;;;3.00;0.50;;;8.10;99.90;;;;;;5009366;28;20057;-75
2023/01/14 10:35:32;;;;;;;0.95;0.60;;;8.10;99.90;;;;;;4994005;28;20038;-76
2023/01/14 10:37:59;;;;;;;1.63;0.75;;;8.20;99.90;;;;;;4991811;28;20053;-76
2023/01/14 10:40:28;;;;;;;0.60;0.60;;;8.20;99.90;;;;;;5010957;28;20561;-76
2023/01/14 10:42:55;;;;;;;1.98;1.30;;;8.20;99.90;;;;;;5009251;28;20037;-75
2023/01/14 10:45:21;;;;;;;7.38;0.73;;;8.20;99.90;;;;;;4986680;28;20061;-75
2023/01/14 10:47:49;;;;;;;1.23;0.93;;;8.20;99.90;;;;;;5009833;28;20041;-74
2023/01/14 10:50:28;;;;;;;3.88;0.90;;;8.20;99.90;;;;;;5009441;28;20192;-75
2023/01/14 10:53:12;;;;;;;7.80;0.70;;;8.20;99.90;;;;;;4992926;28;20041;-75
2023/01/14 10:55:52;;;;;;;5.68;1.55;;;8.20;99.90;;;;;;4995574;28;20037;-75
2023/01/14 10:58:34;;;;;;;3.75;0.90;;;8.20;99.90;;;;;;4978348;28;20042;-76
2023/01/14 11:01:08;;;;;;;;;;;8.30;99.90;;;;;;4994002;28;20473;-75
2023/01/14 11:03:40;;;;;;;2.55;0.68;;;8.30;99.90;;;;;;4993186;28;19915;-75
2023/01/14 11:06:11;;;;;;;5.15;0.75;;;8.40;99.90;;;;;;4993753;28;20038;-75
2023/01/14 11:08:57;;;;;;;0.90;0.63;;;8.40;99.90;;;;;;5003519;28;20105;-76
2023/01/14 11:11:36;;;;;;;5.95;1.38;;;8.40;99.90;;;;;;4985864;28;20041;-75
2023/01/14 11:14:25;;;;;;;4.25;0.82;;;8.50;99.90;;;;;;5002399;28;20072;-75
2023/01/14 11:16:51;;;;;;;0.88;0.38;;;8.50;99.90;;;;;;5010713;28;20585;-75
2023/01/14 11:19:20;;;;;;;4.28;1.40;;;8.60;99.90;;;;;;5002685;28;20116;-75
2023/01/14 11:21:55;;;;;;;7.05;1.05;;;8.60;99.90;;;;;;5009497;28;20026;-76
2023/01/14 11:24:35;;;;;;;5.70;1.08;;;8.70;99.90;;;;;;5001433;28;20053;-75
2023/01/14 11:27:22;;;;;;;1.85;1.70;;;8.70;99.90;;;;;;5009329;28;20393;-75
2023/01/14 11:29:57;;;;;;;0.47;0.38;;;8.70;99.90;;;;;;5001413;28;20087;-74
2023/01/14 11:32:27;;;;;;;1.38;0.55;;;8.70;99.90;;;;;;4979466;28;20432;-75
2023/01/14 11:34:59;;;;;;;9.27;1.08;;;8.80;99.90;;;;;;5000862;28;20042;-76
2023/01/14 11:37:53;;;;;;;6.88;1.02;;;8.80;99.90;;;;;;5009397;28;20454;-75
2023/01/14 11:43:22;;;;;;;1.95;1.00;;;8.80;99.90;;;;;;4990318;28;20038;-76
2023/01/14 11:46:05;;;;;;;6.15;1.45;;;8.90;99.90;;;;;;4992954;28;20528;-75
2023/01/14 11:48:31;;;;;;;9.75;1.05;;;8.90;99.90;;;;;;4991131;28;20478;-75
2023/01/14 11:51:05;;;;;;;0.75;0.50;;;8.90;99.90;;;;;;5007911;28;20079;-76
2023/01/14 11:53:52;;;;;;;0.75;0.73;;;9.00;99.90;;;;;;5005143;28;20467;-76
2023/01/14 11:56:38;;;;;;;10.38;0.70;;;9.00;99.90;;;;;;4985006;28;20030;-76
2023/01/14 11:59:37;;;;;;;5.18;0.65;;;9.00;99.90;;;;;;5001394;28;20074;-76
2023/01/14 12:02:28;;;;;;;3.92;0.98;;;9.00;99.90;;;;;;5009453;28;20105;-77
2023/01/14 12:05:11;;;;;;;0.93;0.60;;;9.00;99.90;;;;;;5001012;28;20046;-75
2023/01/14 12:07:53;;;;;;;0.70;0.50;;;9.10;99.90;;;;;;5011567;28;20060;-77
2023/01/14 12:10:21;;;;;;;1.92;0.60;;;9.10;99.90;;;;;;5010674;28;20119;-75
2023/01/14 12:19:24;;;;;;;4.82;0.52;;;9.20;99.90;;;;;;4994414;28;20037;-75
2023/01/14 12:22:01;;;;;;;3.40;0.82;;;9.20;99.90;;;;;;4988759;28;20066;-76
2023/01/14 12:24:41;;;;;;;9.85;1.58;;;9.30;99.90;;;;;;4998028;28;20414;-75
2023/01/14 12:27:48;;;;;;;1.48;0.70;;;9.30;99.90;;;;;;5012459;28;20441;-75
2023/01/14 12:30:29;;;;;;;0.65;0.45;;;9.30;99.90;;;;;;5011363;28;20553;-74
2023/01/14 12:33:00;;;;;;;;;;;9.30;99.90;;;;;;5012083;28;20419;-75
2023/01/14 12:35:33;;;;;;;1.13;0.60;;;9.30;99.90;;;;;;5006760;28;19949;-75
2023/01/14 12:45:41;;;;;;;5.78;0.95;;;9.30;99.90;;;;;;4994883;28;20033;-75
2023/01/14 12:46:28;;;;;;;5.07;0.60;;;9.60;99.90;;;;;;5012942;28;20029;-75
2023/01/14 12:48:58;;;;;;;2.38;0.75;;;9.60;99.90;;;;;;5005133;28;20030;-75
2023/01/14 12:51:33;;;;;;;1.58;0.80;;;9.70;99.90;;;;;;5013464;28;20026;-76
2023/01/14 12:54:03;;;;;;;2.08;0.52;;;9.70;99.90;;;;;;5008529;28;20030;-75
2023/01/14 12:56:48;;;;;;;0.50;0.30;;;9.80;99.90;;;;;;5011446;28;20116;-74
2023/01/14 12:59:39;;;;;;;1.45;0.40;;;9.80;99.90;;;;;;4993851;28;20029;-74
2023/01/14 13:02:40;;;;;;;8.38;1.08;;;9.80;99.90;;;;;;5012127;28;20438;-75
2023/01/14 13:05:11;;;;;;;4.00;0.77;;;9.90;99.90;;;;;;5003392;28;20493;-74
2023/01/14 13:08:05;;;;;;;1.10;0.60;;;9.90;99.90;;;;;;5011654;28;20620;-74
2023/01/14 13:10:36;;;;;;;0.45;0.35;;;9.90;99.90;;;;;;5002063;28;20041;-76
2023/01/14 13:13:17;;;;;;;0.20;0.15;;;9.90;99.90;;;;;;5009628;28;20065;-75
2023/01/14 13:15:43;;;;;;;2.20;0.47;;;9.90;99.90;;;;;;4996805;28;20100;-75
2023/01/14 13:18:33;;;;;;;0.70;0.30;;;9.90;99.90;;;;;;5010353;28;20148;-75
2023/01/14 13:20:59;;;;;;;1.10;0.47;;;10.00;99.90;;;;;;5010673;28;20042;-74
2023/01/14 13:23:48;;;;;;;1.00;0.45;;;9.90;99.90;;;;;;5007474;28;20483;-76
2023/01/14 13:26:40;;;;;;;0.25;0.15;;;9.90;99.90;;;;;;4986745;28;20745;-74
2023/01/14 13:29:22;;;;;;;1.02;0.55;;;9.90;99.90;;;;;;5004310;28;20042;-76
2023/01/14 13:31:48;;;;;;;0.65;0.52;;;9.90;99.90;;;;;;5012774;28;20036;-74
2023/01/14 13:34:28;;;;;;;0.90;0.30;;;9.90;99.90;;;;;;5010188;28;20393;-75
2023/01/14 13:36:59;;;;;;;4.15;1.00;;;10.00;99.90;;;;;;5022319;23;20050;-77
2023/01/14 13:39:25;;;;;;;;;;;9.90;99.90;;;;;;4975758;28;20164;-77
2023/01/14 13:41:58;;;;;;;2.40;0.80;;;10.00;99.90;;;;;;5010171;28;20545;-77
2023/01/14 13:44:35;;;;;;;2.72;1.25;;;10.10;99.90;;;;;;4994134;28;20041;-77
2023/01/14 13:47:17;;;;;;;0.32;0.30;;;10.10;99.90;;;;;;4982933;28;20045;-77
2023/01/14 13:50:22;;;;;;;0.40;0.25;;;10.10;99.90;;;;;;4976377;28;20109;-77
2023/01/14 13:52:57;;;;;;;3.40;0.60;;;10.10;99.90;;;;;;4981597;28;20038;-76
2023/01/14 13:55:30;;;;;;;2.35;0.50;;;10.10;99.90;;;;;;4975059;28;20556;-77
2023/01/14 13:58:01;;;;;;;1.20;0.43;;;10.10;99.90;;;;;;4975340;28;20478;-77
2023/01/14 14:00:37;;;;;;;5.18;1.13;;;10.10;99.90;;;;;;4975517;28;20036;-77
2023/01/14 14:03:34;;;;;;;1.92;0.50;;;10.10;99.90;;;;;;4975393;28;20032;-77
2023/01/14 14:06:18;;;;;;;1.65;0.38;;;10.10;99.90;;;;;;4992197;28;20196;-76
2023/01/14 14:08:53;;;;;;;0.50;0.28;;;10.10;99.90;;;;;;4992356;28;20038;-76
2023/01/14 14:11:22;;;;;;;0.95;0.30;;;10.10;99.90;;;;;;4975134;28;20042;-76